createdAt,value
2023-01-25T00:00:20.307Z,43.94
2023-01-25T00:01:36.699Z,44.44
2023-01-25T00:02:42.446Z,44.69
2023-01-25T00:03:48.047Z,43.73
2023-01-25T00:05:01.111Z,42.81
2023-01-25T00:06:13.403Z,44.87
2023-01-25T00:07:17.885Z,42.33
2023-01-25T00:08:25.740Z,43.13
2023-01-25T00:09:32.948Z,43.81
2023-01-25T00:10:37.075Z,44.25
2023-01-25T00:11:42.758Z,42.81
2023-01-25T00:12:47.181Z,45.13
2023-01-25T00:13:56.185Z,41.56
2023-01-25T00:15:03.034Z,42.67
2023-01-25T00:16:09.133Z,44.81
2023-01-25T00:18:22.095Z,44.50
2023-01-25T00:19:30.821Z,46.31
2023-01-25T00:20:33.639Z,44.47
2023-01-25T00:21:39.870Z,45.88
2023-01-25T00:22:53.933Z,44.40
2023-01-25T00:23:59.658Z,46.27
2023-01-25T00:25:09.951Z,44.47
2023-01-25T00:26:11.804Z,40.13
2023-01-25T00:27:16.148Z,46.13
2023-01-25T00:28:37.751Z,44.00
2023-01-25T00:29:34.116Z,46.87
2023-01-25T00:30:44.748Z,45.38
2023-01-25T00:32:09.781Z,43.87
2023-01-25T00:33:22.538Z,46.50
2023-01-25T00:34:32.205Z,42.94
2023-01-25T00:37:46.373Z,44.06
2023-01-25T00:38:52.156Z,43.60
2023-01-25T00:39:58.678Z,42.62
2023-01-25T00:41:04.105Z,42.25
2023-01-25T00:42:12.436Z,42.25
2023-01-25T00:43:16.575Z,43.56
2023-01-25T00:44:20.882Z,33.53
2023-01-25T00:45:27.301Z,44.19
2023-01-25T00:46:31.597Z,46.73
2023-01-25T00:47:35.742Z,42.00
2023-01-25T00:48:39.808Z,43.38
2023-01-25T00:49:47.731Z,46.33
2023-01-25T00:52:02.104Z,42.25
2023-01-25T00:53:06.326Z,41.56
2023-01-25T00:54:17.407Z,42.13
2023-01-25T00:56:51.161Z,41.80
2023-01-25T00:58:09.699Z,41.07
2023-01-25T00:59:05.745Z,43.87
2023-01-25T01:00:12.282Z,46.07
2023-01-25T01:01:29.318Z,41.33
2023-01-25T01:02:25.400Z,43.87
2023-01-25T01:03:31.248Z,45.19
2023-01-25T01:04:44.085Z,44.25
2023-01-25T01:05:45.555Z,44.31
2023-01-25T01:06:53.157Z,45.53
2023-01-25T01:08:00.456Z,44.00
2023-01-25T01:10:44.817Z,35.56
2023-01-25T01:11:41.938Z,44.60
2023-01-25T01:12:50.057Z,45.60
2023-01-25T01:13:58.944Z,44.87
2023-01-25T01:15:03.200Z,43.38
2023-01-25T01:16:16.514Z,44.19
2023-01-25T01:17:20.664Z,46.53
2023-01-25T01:18:31.392Z,44.19
2023-01-25T01:19:32.192Z,40.00
2023-01-25T01:20:39.463Z,44.19
2023-01-25T01:21:47.220Z,43.63
2023-01-25T01:23:16.270Z,42.13
2023-01-25T01:24:02.943Z,43.73
2023-01-25T01:25:10.512Z,43.44
2023-01-25T01:26:18.322Z,44.47
2023-01-25T01:27:24.120Z,41.25
2023-01-25T01:28:35.301Z,44.53
2023-01-25T01:29:36.504Z,45.87
2023-01-25T01:30:42.357Z,44.19
2023-01-25T01:31:52.492Z,45.40
2023-01-25T01:32:58.426Z,45.06
2023-01-25T01:34:04.920Z,44.38
2023-01-25T01:35:09.872Z,43.75
2023-01-25T01:36:19.902Z,44.25
2023-01-25T01:37:24.077Z,44.33
2023-01-25T01:38:30.134Z,44.47
2023-01-25T01:39:37.042Z,43.63
2023-01-25T01:40:46.375Z,40.73
2023-01-25T01:41:50.559Z,40.56
2023-01-25T01:43:08.421Z,34.19
2023-01-25T01:44:22.037Z,35.13
2023-01-25T01:45:50.260Z,36.88
2023-01-25T01:46:59.107Z,43.00
2023-01-25T01:48:03.374Z,45.19
2023-01-25T01:49:19.396Z,46.47
2023-01-25T01:50:39.917Z,42.88
2023-01-25T01:51:42.714Z,44.19
2023-01-25T01:52:47.026Z,42.00
2023-01-25T01:53:58.363Z,41.56
2023-01-25T01:55:08.776Z,46.20
2023-01-25T01:56:16.130Z,44.87
2023-01-25T01:59:09.822Z,44.00
2023-01-25T03:56:41.879Z,43.56
2023-01-25T03:57:38.750Z,44.33
2023-01-25T03:58:54.937Z,40.38
2023-01-25T04:01:53.411Z,41.13
2023-01-25T04:02:47.315Z,40.81
2023-01-25T04:03:51.431Z,40.67
2023-01-25T04:04:56.916Z,40.69
2023-01-25T04:06:02.621Z,41.88
2023-01-25T04:07:06.653Z,40.94
2023-01-25T04:08:12.186Z,40.69
2023-01-25T04:09:16.413Z,45.40
2023-01-25T04:10:22.108Z,40.56
2023-01-25T04:11:31.254Z,45.94
2023-01-25T04:12:32.421Z,43.19
2023-01-25T04:13:38.313Z,40.93
2023-01-25T04:14:44.755Z,44.93
2023-01-25T04:15:48.720Z,44.40
2023-01-25T04:16:52.889Z,42.06
2023-01-25T04:17:58.438Z,44.50
2023-01-25T04:19:04.053Z,44.07
2023-01-25T04:20:08.932Z,42.13
2023-01-25T04:21:13.090Z,44.40
2023-01-25T04:22:19.347Z,44.56
2023-01-25T04:23:25.108Z,43.60
2023-01-25T04:24:35.885Z,44.40
2023-01-25T04:25:35.178Z,41.07
2023-01-25T04:26:40.245Z,45.75
2023-01-25T04:27:45.874Z,39.67
2023-01-25T04:29:08.122Z,45.31
2023-01-25T04:30:03.190Z,42.25
2023-01-25T04:31:08.784Z,37.00
2023-01-25T04:32:14.507Z,41.00
2023-01-25T04:33:25.159Z,44.60
2023-01-25T04:34:28.494Z,43.00
2023-01-25T04:35:31.791Z,42.69
2023-01-25T04:36:36.265Z,43.00
2023-01-25T04:37:40.363Z,42.33
2023-01-25T04:38:44.481Z,44.73
2023-01-25T04:39:50.141Z,44.93
2023-01-25T04:40:55.862Z,46.25
2023-01-25T04:42:01.371Z,47.69
2023-01-25T04:43:07.162Z,48.13
2023-01-25T04:44:12.933Z,46.47
2023-01-25T04:45:18.674Z,46.88
2023-01-25T04:46:29.322Z,45.38
2023-01-25T04:47:30.040Z,45.75
2023-01-25T04:48:36.832Z,46.47
2023-01-25T04:49:39.926Z,46.63
2023-01-25T04:51:01.931Z,45.50
2023-01-25T04:52:02.234Z,44.56
2023-01-25T04:53:21.855Z,50.67
2023-01-25T04:54:22.755Z,49.53
2023-01-25T04:55:32.759Z,48.25
2023-01-25T04:56:38.912Z,51.75
2023-01-25T04:57:46.314Z,49.75
2023-01-25T04:58:55.851Z,49.73
2023-01-25T04:59:59.965Z,50.27
2023-01-25T05:01:07.364Z,48.27
2023-01-25T05:02:11.741Z,45.47
2023-01-25T05:03:21.507Z,45.38
2023-01-25T05:04:25.577Z,45.31
2023-01-25T05:05:29.607Z,46.33
2023-01-25T05:06:43.217Z,46.06
2023-01-25T05:07:45.850Z,43.73
2023-01-25T05:09:56.948Z,46.88
2023-01-25T05:10:01.812Z,47.20
2023-01-25T05:11:08.045Z,45.33
2023-01-25T05:12:13.506Z,48.19
2023-01-25T05:13:21.969Z,48.13
2023-01-25T05:14:27.537Z,41.81
2023-01-25T05:15:33.739Z,48.93
2023-01-25T05:16:38.945Z,47.13
2023-01-25T05:17:48.145Z,42.67
2023-01-25T05:18:55.162Z,47.94
2023-01-25T05:20:02.341Z,49.47
2023-01-25T05:21:08.141Z,49.88
2023-01-25T05:22:17.172Z,46.56
2023-01-25T05:24:48.893Z,51.60
2023-01-25T05:26:09.384Z,52.44
2023-01-25T05:27:23.752Z,51.80
2023-01-25T05:28:26.184Z,57.87
2023-01-25T05:29:37.532Z,58.06
2023-01-25T05:30:43.188Z,57.33
2023-01-25T05:31:50.411Z,64.13
2023-01-25T05:33:00.975Z,54.50
2023-01-25T05:34:03.766Z,55.44
2023-01-25T05:35:16.509Z,61.75
2023-01-25T05:36:20.884Z,63.63
2023-01-25T05:37:27.156Z,61.63
2023-01-25T05:38:32.750Z,60.80
2023-01-25T05:39:46.049Z,51.33
2023-01-25T05:40:54.809Z,54.25
2023-01-25T05:42:12.956Z,54.06
2023-01-25T05:43:16.795Z,52.93
2023-01-25T05:44:22.377Z,53.56
2023-01-25T05:45:28.407Z,51.37
2023-01-25T05:46:35.416Z,45.60
2023-01-25T05:47:39.503Z,53.06
2023-01-25T05:48:43.563Z,50.00
2023-01-25T05:49:47.609Z,47.53
2023-01-25T05:50:51.747Z,48.19
2023-01-25T05:51:55.860Z,47.27
2023-01-25T05:53:03.648Z,47.31
2023-01-25T05:54:12.883Z,52.07
2023-01-25T05:55:22.663Z,48.53
2023-01-25T05:56:29.849Z,50.53
2023-01-25T05:57:34.077Z,46.33
2023-01-25T05:58:41.646Z,49.87
2023-01-25T05:59:47.128Z,49.87
2023-01-25T06:00:56.388Z,47.80
2023-01-25T06:02:00.037Z,47.67
2023-01-25T06:03:04.476Z,46.33
2023-01-25T06:04:12.551Z,47.06
2023-01-25T06:05:24.265Z,44.93
2023-01-25T06:06:27.729Z,47.67
2023-01-25T06:07:36.955Z,45.40
2023-01-25T06:08:45.767Z,48.67
2023-01-25T06:09:49.812Z,50.40
2023-01-25T06:10:54.029Z,48.40
2023-01-25T06:12:00.770Z,49.47
2023-01-25T06:13:10.059Z,49.13
2023-01-25T06:14:19.447Z,47.80
2023-01-25T06:15:25.194Z,47.94
2023-01-25T06:16:29.425Z,48.38
2023-01-25T06:17:34.997Z,48.94
2023-01-25T06:20:34.527Z,47.53
2023-01-25T06:21:38.649Z,48.27
2023-01-25T06:22:47.256Z,47.62
2023-01-25T06:23:55.141Z,45.31
2023-01-25T06:25:05.146Z,45.40
2023-01-25T06:26:09.467Z,45.81
2023-01-25T06:27:16.906Z,44.67
2023-01-25T06:28:22.651Z,48.00
2023-01-25T06:29:29.483Z,42.94
2023-01-25T06:30:39.529Z,47.38
2023-01-25T06:32:21.642Z,48.69
2023-01-25T06:33:01.706Z,45.47
2023-01-25T06:34:08.803Z,47.31
2023-01-25T06:35:21.155Z,46.81
2023-01-25T06:36:22.407Z,50.60
2023-01-25T06:37:51.430Z,48.73
2023-01-25T06:38:34.255Z,50.12
2023-01-25T06:39:38.349Z,51.27
2023-01-25T06:40:42.384Z,46.40
2023-01-25T06:41:48.289Z,49.38
2023-01-25T06:42:53.818Z,50.33
2023-01-25T06:44:30.609Z,47.73
2023-01-25T06:45:18.847Z,52.69
2023-01-25T06:46:27.310Z,53.81
2023-01-25T06:47:22.269Z,48.38
2023-01-25T06:48:32.629Z,47.44
2023-01-25T06:49:34.433Z,40.47
2023-01-25T06:50:38.507Z,45.87
2023-01-25T06:51:46.565Z,45.80
2023-01-25T06:52:57.775Z,47.60
2023-01-25T06:54:05.451Z,48.94
2023-01-25T06:55:10.204Z,50.40
2023-01-25T06:56:36.714Z,49.69
2023-01-25T06:57:35.488Z,47.67
2023-01-25T06:58:49.613Z,46.44
2023-01-25T07:00:09.944Z,46.19
2023-01-25T07:01:31.961Z,48.06
2023-01-25T07:03:04.995Z,51.00
2023-01-25T07:03:42.424Z,49.44
2023-01-25T07:04:51.858Z,50.73
2023-01-25T07:06:11.352Z,50.20
2023-01-25T07:07:20.291Z,47.33
2023-01-25T07:08:26.852Z,49.33
2023-01-25T07:09:34.194Z,49.27
2023-01-25T07:11:29.079Z,49.13
2023-01-25T07:11:52.329Z,46.67
2023-01-25T07:13:00.800Z,46.75
2023-01-25T07:16:44.113Z,46.19
2023-01-25T07:17:45.025Z,48.63
2023-01-25T07:19:09.418Z,47.13
2023-01-25T07:20:26.431Z,47.44
2023-01-25T07:21:44.300Z,47.44
2023-01-25T07:25:55.383Z,45.38
2023-01-25T07:26:58.446Z,44.13
2023-01-25T07:28:02.599Z,46.88
2023-01-25T07:29:16.301Z,44.69
2023-01-25T07:30:20.622Z,46.63
2023-01-25T07:31:25.280Z,46.19
2023-01-25T07:32:30.882Z,48.00
2023-01-25T07:33:36.471Z,45.00
2023-01-25T07:34:40.688Z,45.00
2023-01-25T07:36:54.855Z,46.50
2023-01-25T07:37:25.163Z,42.38
2023-01-25T07:37:59.615Z,46.37
2023-01-25T07:39:05.485Z,44.81
2023-01-25T07:40:13.705Z,47.87
2023-01-25T07:41:22.696Z,48.31
2023-01-25T07:42:30.796Z,47.06
2023-01-25T07:43:36.401Z,45.27
2023-01-25T07:44:42.211Z,45.38
2023-01-25T07:45:47.854Z,49.13
2023-01-25T07:46:58.148Z,47.81
2023-01-25T07:48:08.282Z,47.87
2023-01-25T07:49:17.171Z,49.67
2023-01-25T07:50:44.813Z,47.80
2023-01-25T07:51:29.648Z,43.25
2023-01-25T07:53:42.313Z,45.60
2023-01-25T07:56:29.787Z,46.25
2023-01-25T07:57:33.944Z,42.40
2023-01-25T07:58:38.424Z,46.13
2023-01-25T07:59:43.186Z,43.94
2023-01-25T08:00:50.723Z,45.19
2023-01-25T08:01:57.433Z,46.60
2023-01-25T08:03:03.048Z,44.75
2023-01-25T08:04:07.960Z,45.75
2023-01-25T08:06:00.535Z,46.00
2023-01-25T08:06:20.348Z,50.00
2023-01-25T08:07:35.411Z,44.27
2023-01-25T08:08:39.311Z,46.13
2023-01-25T08:10:57.355Z,47.06
2023-01-25T08:11:28.687Z,44.40
2023-01-25T08:12:30.434Z,46.40
2023-01-25T08:13:17.398Z,43.56
2023-01-25T08:14:28.113Z,49.27
2023-01-25T08:15:32.561Z,46.73
2023-01-25T08:16:37.303Z,44.63
2023-01-25T08:17:42.957Z,43.00
2023-01-25T08:18:50.085Z,44.07
2023-01-25T08:20:00.931Z,45.69
2023-01-25T08:22:21.600Z,45.31
2023-01-25T08:23:42.771Z,44.88
2023-01-25T08:26:11.216Z,43.07
2023-01-25T08:27:16.954Z,45.00
2023-01-25T08:28:46.227Z,42.13
2023-01-25T08:29:32.020Z,39.87
2023-01-25T08:30:41.200Z,42.53
2023-01-25T08:31:49.238Z,43.20
2023-01-25T08:32:54.932Z,41.73
2023-01-25T08:34:00.007Z,43.25
2023-01-25T08:35:04.343Z,41.75
2023-01-25T08:36:11.294Z,42.00
2023-01-25T08:37:28.272Z,42.47
2023-01-25T08:38:29.150Z,41.06
2023-01-25T08:39:36.344Z,45.94
2023-01-25T08:40:45.725Z,43.50
2023-01-25T08:41:53.897Z,44.63
2023-01-25T08:44:17.926Z,39.81
2023-01-25T08:45:15.945Z,43.50
2023-01-25T08:46:25.772Z,41.13
2023-01-25T08:47:31.216Z,40.88
2023-01-25T08:48:36.109Z,42.94
2023-01-25T08:49:45.801Z,41.73
2023-01-25T08:51:04.811Z,39.69
2023-01-25T08:52:24.365Z,40.44
2023-01-25T08:54:44.823Z,41.47
2023-01-25T08:55:51.596Z,45.31
2023-01-25T08:57:29.774Z,40.07
2023-01-25T08:58:06.073Z,40.00
2023-01-25T08:59:16.484Z,41.81
2023-01-25T09:00:28.786Z,41.88
2023-01-25T09:02:00.685Z,44.00
2023-01-25T09:03:04.491Z,44.13
2023-01-25T09:03:58.138Z,43.81
2023-01-25T09:04:56.947Z,46.13
2023-01-25T09:06:02.694Z,46.07
2023-01-25T09:07:20.107Z,41.37
2023-01-25T09:08:23.465Z,43.67
2023-01-25T09:09:32.513Z,47.75
2023-01-25T09:11:09.228Z,42.47
2023-01-25T09:11:45.752Z,44.25
2023-01-25T09:12:51.405Z,40.67
2023-01-25T09:13:58.700Z,43.93
2023-01-25T09:15:03.934Z,43.38
2023-01-25T09:16:10.297Z,41.69
2023-01-25T09:21:20.487Z,43.81
2023-01-25T09:22:24.637Z,38.81
2023-01-25T09:25:29.187Z,43.81
2023-01-25T09:26:36.856Z,38.13
2023-01-25T09:31:42.213Z,41.31
2023-01-25T09:32:53.882Z,39.00
2023-01-25T09:33:58.170Z,41.00
2023-01-25T09:35:04.918Z,43.25
2023-01-25T09:36:11.411Z,38.44
2023-01-25T09:37:15.427Z,42.38
2023-01-25T09:38:19.614Z,43.06
2023-01-25T09:39:26.927Z,40.25
2023-01-25T09:40:33.962Z,41.37
2023-01-25T09:42:13.408Z,43.13
2023-01-25T09:43:20.767Z,42.75
2023-01-25T09:44:33.840Z,39.00
2023-01-25T09:59:03.003Z,44.75
2023-01-25T10:00:21.164Z,44.94
2023-01-25T10:01:38.007Z,44.00
2023-01-25T10:02:39.290Z,44.00
2023-01-25T10:15:36.195Z,41.44
2023-01-25T10:16:41.545Z,42.44
2023-01-25T10:17:26.974Z,42.38
2023-01-25T10:19:36.591Z,40.81
2023-01-25T10:20:43.649Z,38.47
2023-01-25T10:22:29.884Z,38.33
2023-01-25T10:23:09.654Z,41.47
2023-01-25T10:24:36.799Z,40.25
2023-01-25T10:25:49.503Z,41.75
2023-01-25T10:27:01.086Z,42.47
2023-01-25T10:28:49.760Z,38.94
2023-01-25T10:29:48.244Z,40.81
2023-01-25T10:31:13.128Z,38.44
2023-01-25T10:32:28.997Z,40.07
2023-01-25T10:49:01.875Z,38.20
2023-01-25T10:52:21.074Z,42.44
2023-01-25T10:53:37.394Z,45.06
2023-01-25T11:09:37.557Z,42.94
2023-01-25T11:10:44.064Z,39.69
2023-01-25T11:11:58.115Z,41.44
2023-01-25T11:13:29.369Z,40.88
2023-01-25T11:14:39.364Z,41.75
2023-01-25T11:30:12.713Z,43.75
2023-01-25T11:31:28.419Z,39.69
2023-01-25T11:32:27.420Z,44.07
2023-01-25T11:33:33.045Z,44.00
2023-01-25T11:34:37.058Z,44.50
2023-01-25T11:36:06.716Z,44.00
2023-01-25T11:37:13.772Z,45.06
2023-01-25T11:38:43.804Z,42.00
2023-01-25T11:39:43.802Z,44.25
2023-01-25T11:40:58.214Z,43.94
2023-01-25T11:42:23.916Z,40.88
2023-01-25T11:43:59.581Z,43.31
2023-01-25T11:45:26.251Z,45.00
2023-01-25T11:46:55.677Z,43.33
2023-01-25T11:48:13.275Z,44.44
2023-01-25T11:49:39.551Z,44.13
2023-01-25T11:50:58.037Z,46.07
2023-01-25T11:52:18.559Z,38.63
2023-01-25T11:53:27.213Z,44.50
2023-01-25T11:54:42.799Z,37.56
2023-01-25T11:56:04.899Z,44.63
2023-01-25T11:58:20.372Z,43.00
2023-01-25T11:59:05.210Z,40.25
2023-01-25T12:43:13.106Z,45.40
2023-01-25T12:44:26.013Z,47.56
2023-01-25T12:45:35.142Z,46.87
2023-01-25T12:48:22.472Z,47.00
2023-01-25T12:49:58.624Z,47.47
2023-01-25T12:53:23.829Z,43.94
2023-01-25T12:54:44.866Z,47.75
2023-01-25T12:55:52.345Z,45.13
2023-01-25T12:57:31.703Z,47.93
2023-01-25T12:58:51.243Z,43.38
2023-01-25T13:00:04.419Z,46.19
2023-01-25T13:01:33.259Z,46.75
2023-01-25T13:02:50.593Z,45.13
2023-01-25T13:04:22.257Z,46.50
2023-01-25T13:05:23.142Z,46.40
2023-01-25T13:06:45.721Z,46.31
2023-01-25T13:07:45.137Z,42.80
2023-01-25T13:09:06.338Z,44.13
2023-01-25T13:10:23.421Z,42.62
2023-01-25T13:11:40.831Z,47.60
2023-01-25T13:13:18.062Z,48.07
2023-01-25T13:14:50.900Z,47.60
2023-01-25T13:15:49.678Z,50.27
2023-01-25T13:17:09.903Z,46.27
2023-01-25T13:31:53.105Z,48.87
2023-01-25T13:34:25.533Z,47.25
2023-01-25T13:35:57.489Z,48.20
2023-01-25T13:36:50.429Z,46.06
2023-01-25T14:12:41.601Z,50.40
2023-01-25T14:48:28.279Z,48.69
2023-01-25T14:48:55.901Z,48.75
2023-01-25T14:50:34.384Z,45.73
2023-01-25T14:52:06.344Z,50.38
2023-01-25T14:53:15.649Z,49.44
2023-01-25T14:54:26.952Z,47.67
2023-01-25T14:55:38.359Z,48.73
2023-01-25T14:58:14.770Z,46.37
2023-01-25T15:00:18.139Z,46.06
2023-01-25T15:02:08.879Z,48.93
2023-01-25T15:03:17.604Z,48.81
2023-01-25T15:04:24.978Z,44.06
2023-01-25T15:05:44.850Z,48.47
2023-01-25T15:22:54.494Z,44.75
2023-01-25T15:23:57.070Z,44.87
2023-01-25T15:25:23.788Z,49.25
2023-01-25T15:26:26.936Z,48.50
2023-01-25T15:28:08.141Z,50.27
2023-01-25T15:28:51.979Z,51.00
2023-01-25T15:34:55.350Z,49.44
2023-01-25T15:37:09.468Z,48.93
2023-01-25T15:38:29.705Z,50.87
2023-01-25T15:39:26.093Z,51.20
2023-01-25T15:40:51.806Z,47.07
2023-01-25T15:41:42.812Z,51.44
2023-01-25T15:43:05.757Z,49.13
2023-01-25T15:43:55.928Z,49.13
2023-01-25T15:45:01.567Z,48.00
2023-01-25T15:46:11.654Z,48.93
2023-01-25T15:48:09.354Z,50.47
2023-01-25T15:48:34.484Z,48.53
2023-01-25T15:49:40.859Z,46.73
2023-01-25T15:50:45.405Z,51.31
2023-01-25T15:52:01.906Z,52.06
2023-01-25T15:53:17.406Z,50.20
2023-01-25T15:54:18.117Z,49.33
2023-01-25T15:55:26.381Z,48.56
2023-01-25T16:00:43.093Z,43.93
2023-01-25T16:01:49.782Z,43.38
2023-01-25T16:02:53.831Z,43.19
2023-01-25T16:04:08.350Z,43.13
2023-01-25T16:05:17.901Z,45.56
2023-01-25T16:06:26.361Z,46.50
2023-01-25T16:07:31.652Z,45.63
2023-01-25T16:08:38.896Z,45.80
2023-01-25T16:09:47.625Z,44.00
2023-01-25T16:10:51.862Z,45.80
2023-01-25T16:11:59.566Z,44.53
2023-01-25T16:13:08.429Z,44.93
2023-01-25T16:14:11.541Z,43.69
2023-01-25T16:15:17.828Z,48.33
2023-01-25T16:16:24.384Z,48.13
2023-01-25T16:17:33.424Z,45.67
2023-01-25T16:18:40.515Z,43.20
2023-01-25T16:19:51.294Z,46.87
2023-01-25T16:21:04.177Z,46.31
2023-01-25T16:22:11.569Z,43.00
2023-01-25T16:23:18.365Z,45.81
2023-01-25T16:24:25.672Z,47.67
2023-01-25T16:26:19.173Z,47.20
2023-01-25T16:28:16.076Z,46.94
2023-01-25T16:28:37.625Z,50.60
2023-01-25T16:29:22.251Z,48.67
2023-01-25T16:30:29.857Z,38.00
2023-01-25T16:31:35.826Z,47.69
2023-01-25T16:33:03.281Z,46.87
2023-01-25T16:34:20.561Z,44.73
2023-01-25T16:35:22.792Z,45.13
2023-01-25T16:36:31.251Z,46.81
2023-01-25T16:37:36.995Z,47.00
2023-01-25T16:38:47.980Z,41.37
2023-01-25T16:39:58.450Z,44.07
2023-01-25T16:41:05.438Z,47.19
2023-01-25T16:42:08.317Z,46.80
2023-01-25T16:43:21.845Z,46.50
2023-01-25T16:44:27.619Z,45.25
2023-01-25T16:45:46.144Z,45.06
2023-01-25T16:46:35.686Z,45.40
2023-01-25T16:47:52.265Z,46.67
2023-01-25T16:48:51.155Z,45.47
2023-01-25T16:51:07.412Z,44.63
2023-01-25T16:51:38.720Z,44.60
2023-01-25T16:52:13.151Z,41.75
2023-01-25T16:53:18.782Z,47.44
2023-01-25T16:54:29.290Z,46.19
2023-01-25T16:55:36.676Z,48.27
2023-01-25T16:56:45.306Z,42.38
2023-01-25T16:57:54.009Z,46.27
2023-01-25T16:59:03.577Z,49.40
2023-01-25T17:00:13.265Z,45.87
2023-01-25T17:01:19.355Z,45.87
2023-01-25T17:02:24.802Z,43.44
2023-01-25T17:03:31.708Z,44.56
2023-01-25T17:04:40.470Z,47.60
2023-01-25T17:05:41.621Z,45.27
2023-01-25T17:06:55.106Z,45.13
2023-01-25T17:07:59.162Z,45.88
2023-01-25T17:09:20.645Z,43.00
2023-01-25T17:10:28.239Z,47.73
2023-01-25T17:11:24.140Z,45.56
2023-01-25T17:12:29.747Z,49.93
2023-01-25T17:13:41.098Z,49.19
2023-01-25T17:15:50.634Z,51.27
2023-01-25T17:15:58.380Z,47.31
2023-01-25T17:18:16.819Z,49.33
2023-01-25T17:19:25.316Z,50.00
2023-01-25T17:20:40.489Z,48.73
2023-01-25T17:23:21.270Z,48.00
2023-01-25T17:24:26.682Z,51.19
2023-01-25T17:25:40.464Z,49.00
2023-01-25T17:27:51.627Z,49.13
2023-01-25T17:29:49.635Z,47.06
2023-01-25T17:30:11.048Z,46.06
2023-01-25T17:31:36.246Z,47.33
2023-01-25T17:32:34.170Z,48.25
2023-01-25T17:33:41.513Z,48.27
2023-01-25T17:34:54.011Z,49.40
2023-01-25T17:36:13.850Z,46.75
2023-01-25T17:37:22.123Z,48.31
2023-01-25T17:38:20.123Z,47.44
2023-01-25T17:39:26.864Z,47.00
2023-01-25T17:41:25.522Z,49.88
2023-01-25T17:41:50.700Z,46.88
2023-01-25T17:42:56.385Z,46.81
2023-01-25T17:57:25.329Z,48.60
2023-01-25T17:58:29.901Z,46.67
2023-01-25T17:59:35.733Z,44.94
2023-01-25T18:00:48.919Z,46.50
2023-01-25T18:01:53.038Z,48.20
2023-01-25T18:02:59.057Z,44.93
2023-01-25T22:23:38.798Z,45.69
2023-01-25T22:24:42.701Z,43.87
2023-01-25T22:25:46.679Z,45.13
2023-01-25T22:26:59.766Z,44.80
2023-01-25T22:28:05.009Z,44.19
2023-01-25T22:29:09.554Z,42.60
2023-01-25T22:30:14.223Z,40.50
2023-01-25T22:31:21.687Z,42.50
2023-01-25T22:32:25.936Z,41.19
2023-01-25T22:33:30.154Z,42.62
2023-01-25T22:34:34.110Z,43.00
2023-01-25T22:35:38.163Z,44.19
2023-01-25T22:36:42.192Z,43.63
2023-01-25T22:37:46.275Z,43.56
2023-01-25T22:38:51.365Z,45.50
2023-01-25T22:39:55.402Z,39.69
2023-01-25T22:41:08.578Z,42.60
2023-01-25T22:42:12.745Z,43.47
2023-01-25T22:43:16.715Z,43.94
2023-01-25T22:44:20.723Z,40.81
2023-01-25T22:45:24.632Z,43.81
2023-01-25T22:46:30.209Z,44.00
2023-01-25T22:47:34.119Z,40.94
2023-01-25T22:48:38.096Z,45.31
2023-01-25T22:49:42.054Z,43.73
2023-01-25T22:50:46.221Z,40.19
2023-01-25T22:51:50.268Z,44.38
2023-01-25T22:52:54.263Z,42.50
2023-01-25T22:53:59.830Z,44.00
2023-01-25T22:55:03.898Z,42.69
2023-01-25T22:56:16.475Z,41.87
2023-01-25T22:57:20.673Z,44.44
2023-01-25T22:58:24.820Z,43.87
2023-01-25T22:59:28.747Z,39.93
2023-01-25T23:00:32.837Z,41.69
2023-01-25T23:01:36.943Z,43.00
2023-01-25T23:02:40.999Z,43.13
2023-01-25T23:03:46.080Z,41.94
2023-01-25T23:04:50.177Z,42.33
2023-01-25T23:06:05.531Z,37.53
2023-01-25T23:07:09.511Z,40.56
2023-01-25T23:08:13.518Z,44.13
2023-01-25T23:09:17.539Z,44.88
2023-01-25T23:10:21.587Z,42.69
2023-01-25T23:11:26.584Z,43.69
2023-01-25T23:12:30.566Z,43.73
2023-01-25T23:13:34.817Z,41.81
2023-01-25T23:14:38.879Z,42.13
2023-01-25T23:15:43.848Z,42.80
2023-01-25T23:16:48.502Z,41.44
2023-01-25T23:17:52.511Z,42.88
2023-01-25T23:18:57.016Z,39.06
2023-01-25T23:20:01.035Z,43.25
2023-01-25T23:21:05.805Z,40.25
2023-01-25T23:22:09.701Z,41.88
2023-01-25T23:23:13.741Z,43.81
2023-01-25T23:24:17.857Z,42.88
2023-01-25T23:25:22.455Z,42.00
2023-01-25T23:26:27.075Z,42.88
2023-01-25T23:27:31.072Z,41.13
2023-01-25T23:28:35.174Z,43.06
2023-01-25T23:29:39.226Z,42.88
2023-01-25T23:30:43.323Z,43.07
2023-01-25T23:31:47.358Z,45.25
2023-01-25T23:32:51.344Z,40.00
2023-01-25T23:33:58.031Z,45.19
2023-01-25T23:35:02.052Z,44.81
2023-01-25T23:36:11.115Z,43.19
2023-01-25T23:37:16.929Z,44.33
2023-01-25T23:38:20.744Z,45.93
2023-01-25T23:39:24.722Z,43.00
2023-01-25T23:40:28.682Z,43.60
2023-01-25T23:41:33.071Z,42.31
2023-01-25T23:42:37.032Z,42.38
2023-01-25T23:43:42.301Z,42.25
2023-01-25T23:44:46.303Z,40.94
2023-01-25T23:45:50.339Z,41.13
2023-01-25T23:46:54.351Z,41.94
2023-01-25T23:47:58.366Z,42.93
2023-01-25T23:49:02.347Z,40.12
2023-01-25T23:50:07.252Z,44.80
2023-01-25T23:51:12.565Z,41.81
2023-01-25T23:52:16.584Z,43.25
2023-01-25T23:53:21.207Z,41.47
2023-01-25T23:54:25.177Z,42.13
2023-01-25T23:55:29.147Z,40.38
2023-01-25T23:56:33.162Z,42.60
2023-01-25T23:57:37.168Z,42.00
2023-01-25T23:58:41.865Z,43.87
2023-01-25T23:59:45.877Z,44.00
